aviador You're here:

CYBK Decoded Metar

BAKER LAKE in NU, CANADA
Report Time2018-06-17 21:00:00
UTC Time2018-06-17 21:33:56
Flight Rules vfr VFR
Wind260° at 11 Gusting to 16 kt
W.Decomp.*RWY 34: 2.5 kt HW 10.7 kt LCW
W.Rank260° ranks 22
Current wind is above 260° avg. (9.6)
Visibility9999 m
Phenomena:N/A
Clouds:Few 045 Hf
Broken 210 Hf
Expected CloudBase > 4,800 ft AGL from Temp-Dew spread
Ceiling21,000 ft
Temp22°C (ISA +7)
Dew Point10°C (47% RH)
AAT18.1°C
QNH1007 hPa
Density Alt1,257 ft
Elevation59 ft
Report Wrong Elevation
Raw Report
CYBK 172100Z 26011G16KT 25SM FEW045 BKN210 22/10 A2973 RMK CU1CI7
CU TR SLP072 DENSITY ALT 1100FT=

Extra information for CYBK:More info

Metar Taf Metar & Taf Last 4 Metars F.Rules Stats Wind Profile Meteogram Temp Stats Airport Information Weather charts Add Link Nearby VenuesMetar ALERT Operation Metar Decoded Social comments